createdAt,value
2023-09-11T00:00:45.689Z,97807.01
2023-09-11T00:03:33.964Z,97807.98
2023-09-11T00:06:06.343Z,97808.27
2023-09-11T00:08:35.142Z,97806.58
2023-09-11T00:11:04.212Z,97804.94
2023-09-11T00:13:32.487Z,97803.95
2023-09-11T00:16:00.926Z,97804.05
2023-09-11T00:18:29.030Z,97802.45
2023-09-11T00:20:57.262Z,97798.08
2023-09-11T00:23:25.303Z,97796.59
2023-09-11T00:25:53.263Z,97795.58
2023-09-11T00:28:21.326Z,97794.94
2023-09-11T00:30:49.239Z,97793.95
2023-09-11T00:33:17.948Z,97793.50
2023-09-11T00:35:46.663Z,97791.17
2023-09-11T00:38:14.733Z,97794.34
2023-09-11T00:40:42.591Z,97796.05
2023-09-11T00:43:10.572Z,97792.37
2023-09-11T00:45:38.484Z,97791.20
2023-09-11T00:48:06.852Z,97789.45
2023-09-11T00:50:35.246Z,97791.79
2023-09-11T00:53:05.431Z,97787.31
2023-09-11T00:55:34.175Z,97788.30
2023-09-11T00:58:02.508Z,97787.51
2023-09-11T01:00:30.675Z,97790.23
2023-09-11T01:02:59.744Z,97794.92
2023-09-11T01:05:29.844Z,97793.36
2023-09-11T01:07:58.134Z,97790.19
2023-09-11T01:10:26.244Z,97790.80
2023-09-11T01:12:54.287Z,97787.11
2023-09-11T01:15:23.447Z,97785.14
2023-09-11T01:18:00.607Z,97784.06
2023-09-11T01:20:47.158Z,97785.19
2023-09-11T01:23:15.017Z,97786.62
2023-09-11T01:26:02.124Z,97789.20
2023-09-11T01:28:49.069Z,97788.70
2023-09-11T01:31:18.787Z,97788.33
2023-09-11T01:33:53.288Z,97787.46
2023-09-11T01:36:21.306Z,97785.92
2023-09-11T01:38:49.346Z,97783.91
2023-09-11T01:41:18.638Z,97784.42
2023-09-11T01:43:47.322Z,97786.80
2023-09-11T01:46:15.764Z,97788.23
2023-09-11T01:48:45.397Z,97787.98
2023-09-11T01:51:14.634Z,97784.75
2023-09-11T01:53:42.960Z,97782.45
2023-09-11T01:56:11.328Z,97782.98
2023-09-11T01:58:39.548Z,97783.34
2023-09-11T02:01:07.936Z,97780.63
2023-09-11T02:03:35.937Z,97778.92
2023-09-11T02:06:04.255Z,97777.45
2023-09-11T02:08:32.227Z,97777.41
2023-09-11T02:11:00.231Z,97773.66
2023-09-11T02:13:28.200Z,97778.08
2023-09-11T02:15:56.110Z,97780.52
2023-09-11T02:18:24.032Z,97780.85
2023-09-11T02:20:52.194Z,97780.30
2023-09-11T02:23:20.461Z,97781.50
2023-09-11T02:25:49.434Z,97780.57
2023-09-11T02:28:17.505Z,97783.77
2023-09-11T02:30:46.178Z,97781.98
2023-09-11T02:33:14.795Z,97777.04
2023-09-11T02:35:43.003Z,97779.55
2023-09-11T02:38:11.218Z,97775.38
2023-09-11T02:40:39.224Z,97771.16
2023-09-11T02:43:07.291Z,97770.30
2023-09-11T02:45:35.425Z,97769.67
2023-09-11T02:48:03.742Z,97773.19
2023-09-11T02:50:32.014Z,97772.91
2023-09-11T02:53:00.238Z,97767.43
2023-09-11T02:55:28.228Z,97768.14
2023-09-11T02:57:56.181Z,97765.67
2023-09-11T03:00:24.067Z,97765.46
2023-09-11T03:02:52.577Z,97763.27
2023-09-11T03:05:20.664Z,97762.92
2023-09-11T03:07:48.646Z,97764.41
2023-09-11T03:10:16.693Z,97764.79
2023-09-11T03:12:44.620Z,97768.40
2023-09-11T03:15:12.522Z,97772.52
2023-09-11T03:17:41.837Z,97773.79
2023-09-11T03:20:10.483Z,97773.99
2023-09-11T03:22:38.416Z,97777.55
2023-09-11T03:25:06.706Z,97774.81
2023-09-11T03:27:34.702Z,97773.02
2023-09-11T03:30:02.877Z,97773.74
2023-09-11T03:32:31.360Z,97773.02
2023-09-11T03:34:59.448Z,97771.27
2023-09-11T03:37:27.484Z,97772.35
2023-09-11T03:39:58.533Z,97773.14
2023-09-11T03:42:26.983Z,97773.85
2023-09-11T03:44:55.461Z,97770.22
2023-09-11T03:47:23.670Z,97771.49
2023-09-11T03:49:52.034Z,97772.63
2023-09-11T03:52:20.516Z,97770.61
2023-09-11T03:54:48.883Z,97769.63
2023-09-11T03:57:17.012Z,97771.59
2023-09-11T03:59:45.013Z,97771.14
2023-09-11T04:02:12.987Z,97770.55
2023-09-11T04:04:41.011Z,97768.64
2023-09-11T04:07:09.134Z,97767.79
2023-09-11T04:09:37.296Z,97771.20
2023-09-11T04:12:06.754Z,97767.23
2023-09-11T04:14:38.707Z,97767.27
2023-09-11T04:17:06.739Z,97768.55
2023-09-11T04:19:34.929Z,97767.16
2023-09-11T04:22:03.193Z,97768.48
2023-09-11T04:24:31.501Z,97767.78
2023-09-11T04:26:59.665Z,97766.73
2023-09-11T04:29:29.453Z,97768.86
2023-09-11T04:31:57.475Z,97768.80
2023-09-11T04:34:26.079Z,97766.41
2023-09-11T04:36:54.223Z,97763.10
2023-09-11T04:39:25.445Z,97761.56
2023-09-11T04:41:53.656Z,97763.46
2023-09-11T04:44:21.871Z,97758.95
2023-09-11T04:46:50.065Z,97755.42
2023-09-11T04:49:18.637Z,97756.53
2023-09-11T04:51:46.600Z,97755.40
2023-09-11T04:54:14.884Z,97751.30
2023-09-11T04:56:43.656Z,97750.31
2023-09-11T04:59:11.770Z,97748.11
2023-09-11T05:01:40.052Z,97749.88
2023-09-11T05:04:09.363Z,97748.25
2023-09-11T05:06:37.409Z,97747.05
2023-09-11T05:09:11.440Z,97746.23
2023-09-11T05:11:40.907Z,97741.83
2023-09-11T05:14:09.781Z,97745.87
2023-09-11T05:16:37.782Z,97745.05
2023-09-11T05:19:06.093Z,97745.22
2023-09-11T05:21:34.486Z,97745.79
2023-09-11T05:24:02.729Z,97743.19
2023-09-11T05:26:31.449Z,97738.75
2023-09-11T05:28:59.532Z,97737.41
2023-09-11T05:31:27.617Z,97740.38
2023-09-11T05:33:55.740Z,97738.73
2023-09-11T05:36:23.732Z,97741.38
2023-09-11T05:38:52.276Z,97740.45
2023-09-11T05:41:21.793Z,97747.00
2023-09-11T05:43:49.714Z,97750.14
2023-09-11T05:46:17.950Z,97746.75
2023-09-11T05:48:46.337Z,97749.58
2023-09-11T05:51:15.538Z,97747.96
2023-09-11T05:53:43.538Z,97745.96
2023-09-11T05:56:11.591Z,97744.54
2023-09-11T05:58:40.323Z,97743.38
2023-09-11T06:01:08.792Z,97739.11
2023-09-11T06:03:37.021Z,97738.34
2023-09-11T06:06:05.515Z,97742.96
2023-09-11T06:08:36.734Z,97743.59
2023-09-11T06:11:04.774Z,97742.65
2023-09-11T06:13:34.445Z,97739.42
2023-09-11T06:16:02.757Z,97741.21
2023-09-11T06:18:31.056Z,97739.36
2023-09-11T06:20:59.876Z,97743.95
2023-09-11T06:23:27.982Z,97741.99
2023-09-11T06:25:56.013Z,97743.48
2023-09-11T06:28:24.096Z,97745.56
2023-09-11T06:30:52.152Z,97747.43
2023-09-11T06:33:20.540Z,97747.42
2023-09-11T06:35:48.858Z,97748.27
2023-09-11T06:38:17.246Z,97755.43
2023-09-11T06:40:45.683Z,97756.32
2023-09-11T06:43:13.525Z,97758.67
2023-09-11T06:45:43.023Z,97763.25
2023-09-11T06:48:14.072Z,97765.09
2023-09-11T06:50:42.182Z,97765.21
2023-09-11T06:53:11.014Z,97764.02
2023-09-11T06:55:45.839Z,97762.86
2023-09-11T06:58:13.934Z,97763.30
2023-09-11T07:00:42.391Z,97760.95
2023-09-11T07:03:10.952Z,97758.48
2023-09-11T07:05:39.966Z,97759.17
2023-09-11T07:08:08.059Z,97761.39
2023-09-11T07:10:41.736Z,97758.36
2023-09-11T07:13:10.195Z,97754.64
2023-09-11T07:15:38.233Z,97751.13
2023-09-11T07:18:06.427Z,97751.50
2023-09-11T07:20:34.469Z,97756.19
2023-09-11T07:23:02.646Z,97756.42
2023-09-11T07:25:30.785Z,97752.39
2023-09-11T07:27:58.791Z,97750.40
2023-09-11T07:30:28.720Z,97747.05
2023-09-11T07:32:56.879Z,97751.85
2023-09-11T07:35:24.906Z,97752.16
2023-09-11T07:37:52.800Z,97756.02
2023-09-11T07:40:21.084Z,97755.05
2023-09-11T07:42:49.078Z,97751.88
2023-09-11T07:45:17.103Z,97750.30
2023-09-11T07:47:45.726Z,97746.42
2023-09-11T07:50:13.787Z,97742.27
2023-09-11T07:52:41.797Z,97741.36
2023-09-11T07:55:09.777Z,97739.81
2023-09-11T07:57:41.452Z,97735.02
2023-09-11T08:00:09.982Z,97734.92
2023-09-11T08:02:38.247Z,97736.01
2023-09-11T08:05:06.759Z,97736.89
2023-09-11T08:07:34.714Z,97736.69
2023-09-11T08:10:02.955Z,97733.01
2023-09-11T08:12:33.095Z,97738.33
2023-09-11T08:15:01.209Z,97731.48
2023-09-11T08:17:30.517Z,97729.31
2023-09-11T08:19:58.712Z,97728.23
2023-09-11T08:22:26.762Z,97725.60
2023-09-11T08:24:54.776Z,97730.91
2023-09-11T08:27:22.906Z,97727.65
2023-09-11T08:29:50.904Z,97721.34
2023-09-11T08:32:18.928Z,97715.91
2023-09-11T08:34:46.902Z,97714.34
2023-09-11T08:37:15.194Z,97711.41
2023-09-11T08:39:43.090Z,97710.69
2023-09-11T08:42:11.605Z,97707.09
2023-09-11T08:44:39.564Z,97703.34
2023-09-11T08:47:07.888Z,97706.29
2023-09-11T08:49:40.218Z,97701.94
2023-09-11T08:52:10.534Z,97698.41
2023-09-11T08:54:39.770Z,97701.00
2023-09-11T08:57:08.422Z,97702.41
2023-09-11T08:59:38.886Z,97702.98
2023-09-11T09:02:08.280Z,97700.55
2023-09-11T09:04:36.980Z,97698.30
2023-09-11T09:07:07.358Z,97699.23
2023-09-11T09:09:36.072Z,97693.42
2023-09-11T09:12:05.673Z,97694.39
2023-09-11T09:14:38.377Z,97690.28
2023-09-11T09:17:07.668Z,97691.86
2023-09-11T09:19:35.934Z,97692.38
2023-09-11T09:22:07.071Z,97690.13
2023-09-11T09:24:35.743Z,97685.65
2023-09-11T09:27:05.630Z,97685.77
2023-09-11T09:29:37.906Z,97681.66
2023-09-11T09:32:06.994Z,97678.48
2023-09-11T09:34:36.098Z,97677.14
2023-09-11T09:37:04.619Z,97670.94
2023-09-11T09:39:34.758Z,97668.11
2023-09-11T09:42:04.030Z,97667.29
2023-09-11T09:44:36.327Z,97662.55
2023-09-11T09:47:11.674Z,97660.34
2023-09-11T09:49:48.230Z,97657.55
2023-09-11T09:52:16.800Z,97653.73
2023-09-11T09:54:52.588Z,97649.83
2023-09-11T09:57:22.021Z,97651.16
2023-09-11T09:59:51.918Z,97652.10
2023-09-11T10:02:27.155Z,97644.91
2023-09-11T10:04:57.902Z,97641.11
2023-09-11T10:07:38.638Z,97638.29
2023-09-11T10:10:29.948Z,97634.73
2023-09-11T10:13:11.619Z,97634.34
2023-09-11T10:15:40.527Z,97629.23
2023-09-11T10:18:13.302Z,97631.05
2023-09-11T10:20:41.675Z,97631.76
2023-09-11T10:23:10.521Z,97625.53
2023-09-11T10:25:40.578Z,97621.23
2023-09-11T10:28:12.877Z,97619.76
2023-09-11T10:30:57.913Z,97614.95
2023-09-11T10:33:35.325Z,97614.20
2023-09-11T10:36:11.563Z,97610.95
2023-09-11T10:38:40.294Z,97610.27
2023-09-11T10:41:09.424Z,97610.15
2023-09-11T10:43:37.897Z,97606.02
2023-09-11T10:46:29.480Z,97602.59
2023-09-11T10:48:59.366Z,97603.66
2023-09-11T10:51:30.102Z,97600.35
2023-09-11T10:53:58.250Z,97598.23
2023-09-11T10:56:26.302Z,97595.59
2023-09-11T10:58:55.119Z,97593.66
2023-09-11T11:01:24.276Z,97592.84
2023-09-11T11:03:54.354Z,97590.55
2023-09-11T11:06:23.535Z,97586.30
2023-09-11T11:08:51.827Z,97583.13
2023-09-11T11:11:30.966Z,97584.13
2023-09-11T11:14:13.693Z,97579.84
2023-09-11T11:16:54.549Z,97576.79
2023-09-11T11:19:25.973Z,97577.09
2023-09-11T11:21:54.140Z,97576.02
2023-09-11T11:24:24.314Z,97575.56
2023-09-11T11:26:57.258Z,97573.41
2023-09-11T11:29:27.267Z,97570.02
2023-09-11T11:31:59.064Z,97570.85
2023-09-11T11:34:31.169Z,97567.38
2023-09-11T11:37:05.217Z,97560.08
2023-09-11T11:39:37.082Z,97560.90
2023-09-11T11:42:05.999Z,97558.30
2023-09-11T11:44:36.122Z,97552.59
2023-09-11T11:47:05.109Z,97552.05
2023-09-11T11:49:33.262Z,97550.42
2023-09-11T11:52:02.113Z,97548.52
2023-09-11T11:54:31.024Z,97547.68
2023-09-11T11:57:00.157Z,97544.02
2023-09-11T11:59:35.360Z,97539.69
2023-09-11T12:02:04.684Z,97536.95
2023-09-11T12:04:47.825Z,97532.27
2023-09-11T12:07:18.510Z,97529.59
2023-09-11T12:09:46.682Z,97529.30
2023-09-11T12:12:15.372Z,97527.53
2023-09-11T12:14:43.508Z,97526.26
2023-09-11T12:17:12.439Z,97523.42
2023-09-11T12:19:40.531Z,97525.77
2023-09-11T12:22:10.165Z,97520.23
2023-09-11T12:24:38.265Z,97514.42
2023-09-11T12:27:06.889Z,97517.98
2023-09-11T12:29:34.893Z,97515.25
2023-09-11T12:32:03.188Z,97514.32
2023-09-11T12:34:44.932Z,97512.09
2023-09-11T12:37:13.388Z,97509.21
2023-09-11T12:39:41.589Z,97511.05
2023-09-11T12:42:09.814Z,97510.73
2023-09-11T12:44:38.257Z,97510.92
2023-09-11T12:47:06.776Z,97511.34
2023-09-11T12:49:34.951Z,97510.86
2023-09-11T12:52:03.343Z,97509.31
2023-09-11T12:54:33.599Z,97515.77
2023-09-11T12:57:02.302Z,97515.07
2023-09-11T12:59:34.518Z,97512.15
2023-09-11T13:02:04.931Z,97508.96
2023-09-11T13:04:34.744Z,97506.95
2023-09-11T13:07:02.799Z,97508.21
2023-09-11T13:09:34.361Z,97505.39
2023-09-11T13:12:02.441Z,97504.91
2023-09-11T13:14:30.534Z,97504.27
2023-09-11T13:16:59.098Z,97504.58
2023-09-11T13:19:27.157Z,97505.09
2023-09-11T13:21:55.438Z,97505.31
2023-09-11T13:24:23.646Z,97502.73
2023-09-11T13:26:51.830Z,97498.23
2023-09-11T13:29:19.806Z,97499.40
2023-09-11T13:31:48.121Z,97496.88
2023-09-11T13:34:16.191Z,97492.70
2023-09-11T13:36:45.898Z,97488.56
2023-09-11T13:39:14.138Z,97488.95
2023-09-11T13:41:42.219Z,97484.80
2023-09-11T13:44:10.718Z,97487.05
2023-09-11T13:46:38.649Z,97483.98
2023-09-11T13:49:07.503Z,97479.79
2023-09-11T13:51:35.562Z,97481.05
2023-09-11T13:54:03.935Z,97477.27
2023-09-11T13:56:31.891Z,97477.59
2023-09-11T13:59:00.379Z,97477.52
2023-09-11T14:01:28.259Z,97476.91
2023-09-11T14:03:56.539Z,97471.20
2023-09-11T14:06:25.127Z,97475.23
2023-09-11T14:08:53.510Z,97474.05
2023-09-11T14:11:21.471Z,97476.45
2023-09-11T14:13:49.308Z,97475.27
2023-09-11T14:16:18.752Z,97473.42
2023-09-11T14:18:47.374Z,97474.02
2023-09-11T14:21:15.693Z,97473.55
2023-09-11T14:23:43.907Z,97469.23
2023-09-11T14:26:12.328Z,97468.53
2023-09-11T14:28:40.446Z,97470.27
2023-09-11T14:31:08.792Z,97467.06
2023-09-11T14:33:36.873Z,97465.56
2023-09-11T14:36:05.390Z,97463.58
2023-09-11T14:38:33.608Z,97464.23
2023-09-11T14:41:01.569Z,97461.91
2023-09-11T14:43:29.565Z,97459.91
2023-09-11T14:45:57.942Z,97455.15
2023-09-11T14:48:26.006Z,97455.92
2023-09-11T14:50:54.288Z,97455.75
2023-09-11T14:53:22.452Z,97455.48
2023-09-11T14:55:50.262Z,97452.85
2023-09-11T14:58:18.293Z,97451.52
2023-09-11T15:00:46.320Z,97450.64
2023-09-11T15:03:14.793Z,97450.06
2023-09-11T15:05:42.986Z,97450.70
2023-09-11T15:08:12.797Z,97449.59
2023-09-11T15:10:43.888Z,97452.09
2023-09-11T15:13:12.224Z,97448.94
2023-09-11T15:15:43.468Z,97453.19
2023-09-11T15:18:14.180Z,97453.18
2023-09-11T15:20:43.236Z,97451.81
2023-09-11T15:23:11.490Z,97452.48
2023-09-11T15:25:39.657Z,97457.04
2023-09-11T15:28:08.350Z,97456.96
2023-09-11T15:30:39.070Z,97455.85
2023-09-11T15:33:07.491Z,97456.33
2023-09-11T15:36:02.855Z,97458.38
2023-09-11T15:38:32.452Z,97461.61
2023-09-11T15:41:07.213Z,97467.54
2023-09-11T15:43:39.407Z,97468.03
2023-09-11T15:46:08.678Z,97467.30
2023-09-11T15:48:38.323Z,97466.54
2023-09-11T15:51:07.249Z,97466.98
2023-09-11T15:53:36.749Z,97467.06
2023-09-11T15:56:05.438Z,97466.67
2023-09-11T15:58:33.626Z,97461.39
2023-09-11T16:01:01.695Z,97461.80
2023-09-11T16:03:29.775Z,97461.02
2023-09-11T16:05:57.740Z,97462.14
2023-09-11T16:08:25.657Z,97460.89
2023-09-11T16:10:53.601Z,97464.55
2023-09-11T16:13:21.622Z,97462.27
2023-09-11T16:15:49.886Z,97463.90
2023-09-11T16:18:18.380Z,97465.23
2023-09-11T16:20:46.403Z,97466.70
2023-09-11T16:23:14.650Z,97469.98
2023-09-11T16:25:43.461Z,97467.59
2023-09-11T16:28:11.896Z,97462.95
2023-09-11T16:30:39.730Z,97466.31
2023-09-11T16:33:08.600Z,97466.95
2023-09-11T16:35:36.654Z,97467.02
2023-09-11T16:38:05.294Z,97470.89
2023-09-11T16:40:35.452Z,97476.29
2023-09-11T16:43:03.930Z,97477.20
2023-09-11T16:45:32.277Z,97481.92
2023-09-11T16:48:00.640Z,97481.80
2023-09-11T16:50:28.663Z,97482.50
2023-09-11T16:52:57.430Z,97486.54
2023-09-11T16:55:26.002Z,97490.00
2023-09-11T16:57:54.068Z,97487.67
2023-09-11T17:00:24.415Z,97483.64
2023-09-11T17:02:55.888Z,97485.30
2023-09-11T17:05:24.231Z,97487.45
2023-09-11T17:07:52.724Z,97490.05
2023-09-11T17:10:20.753Z,97493.98
2023-09-11T17:12:50.076Z,97494.19
2023-09-11T17:15:18.220Z,97493.27
2023-09-11T17:17:46.903Z,97497.33
2023-09-11T17:20:17.311Z,97501.94
2023-09-11T17:22:45.383Z,97499.94
2023-09-11T17:25:13.805Z,97500.68
2023-09-11T17:27:42.028Z,97500.09
2023-09-11T17:30:10.460Z,97506.25
2023-09-11T17:32:40.734Z,97508.61
2023-09-11T17:35:09.103Z,97510.21
2023-09-11T17:37:37.160Z,97509.39
2023-09-11T17:40:05.712Z,97514.35
2023-09-11T17:42:36.835Z,97516.92
2023-09-11T17:45:05.832Z,97515.26
2023-09-11T17:47:33.722Z,97517.02
2023-09-11T17:50:01.937Z,97513.96
2023-09-11T17:52:30.222Z,97515.00
2023-09-11T17:54:58.176Z,97516.79
2023-09-11T17:57:26.195Z,97517.46
2023-09-11T17:59:54.646Z,97519.59
2023-09-11T18:02:24.190Z,97519.66
2023-09-11T18:04:53.175Z,97526.48
2023-09-11T18:07:22.677Z,97521.92
2023-09-11T18:09:51.179Z,97522.61
2023-09-11T18:12:19.626Z,97522.20
2023-09-11T18:14:48.473Z,97519.48
2023-09-11T18:17:16.488Z,97521.55
2023-09-11T18:19:44.697Z,97517.88
2023-09-11T18:22:12.727Z,97519.73
2023-09-11T18:24:41.497Z,97519.54
2023-09-11T18:27:09.916Z,97524.02
2023-09-11T18:29:37.960Z,97521.73
2023-09-11T18:32:06.254Z,97521.17
2023-09-11T18:34:36.581Z,97520.76
2023-09-11T18:37:04.884Z,97525.80
2023-09-11T18:39:33.273Z,97531.52
2023-09-11T18:42:04.147Z,97527.20
2023-09-11T18:44:32.191Z,97527.11
2023-09-11T18:47:00.302Z,97527.11
2023-09-11T18:49:30.018Z,97528.97
2023-09-11T18:51:58.032Z,97532.11
2023-09-11T18:54:27.758Z,97529.36
2023-09-11T18:56:56.083Z,97526.01
2023-09-11T18:59:27.263Z,97528.90
2023-09-11T19:02:02.584Z,97532.31
2023-09-11T19:04:32.749Z,97533.09
2023-09-11T19:07:01.057Z,97536.70
2023-09-11T19:09:29.290Z,97539.55
2023-09-11T19:11:57.707Z,97542.16
2023-09-11T19:14:26.130Z,97548.56
2023-09-11T19:16:54.253Z,97548.98
2023-09-11T19:19:22.045Z,97549.71
2023-09-11T19:21:49.987Z,97548.07
2023-09-11T19:24:18.062Z,97545.77
2023-09-11T19:26:46.357Z,97545.17
2023-09-11T19:29:14.269Z,97548.02
2023-09-11T19:31:42.371Z,97550.44
2023-09-11T19:34:11.417Z,97548.77
2023-09-11T19:36:39.310Z,97545.62
2023-09-11T19:39:10.305Z,97543.48
2023-09-11T19:41:40.330Z,97542.00
2023-09-11T19:44:08.244Z,97543.52
2023-09-11T19:46:37.085Z,97543.88
2023-09-11T19:49:05.046Z,97539.61
2023-09-11T19:51:33.021Z,97542.73
2023-09-11T19:54:00.995Z,97543.02
2023-09-11T19:56:29.117Z,97543.45
2023-09-11T19:58:57.297Z,97544.41
2023-09-11T20:01:26.722Z,97546.41
2023-09-11T20:03:55.644Z,97548.66
2023-09-11T20:06:24.037Z,97549.64
2023-09-11T20:08:52.058Z,97549.17
2023-09-11T20:11:19.988Z,97545.53
2023-09-11T20:13:48.616Z,97544.69
2023-09-11T20:16:16.911Z,97543.55
2023-09-11T20:18:45.335Z,97546.23
2023-09-11T20:21:13.932Z,97544.30
2023-09-11T20:23:42.198Z,97546.61
2023-09-11T20:26:10.183Z,97546.31
2023-09-11T20:28:38.548Z,97549.46
2023-09-11T20:31:12.876Z,97548.63
2023-09-11T20:33:43.262Z,97551.16
2023-09-11T20:36:11.974Z,97552.59
2023-09-11T20:38:40.840Z,97551.64
2023-09-11T20:41:09.457Z,97551.27
2023-09-11T20:43:37.919Z,97549.05
2023-09-11T20:46:06.293Z,97550.89
2023-09-11T20:48:34.561Z,97549.89
2023-09-11T20:51:02.604Z,97551.44
2023-09-11T20:53:30.801Z,97549.27
2023-09-11T20:55:58.948Z,97547.59
2023-09-11T20:58:27.508Z,97544.93
2023-09-11T21:00:55.699Z,97545.45
2023-09-11T21:03:23.983Z,97545.23
2023-09-11T21:05:52.380Z,97544.35
2023-09-11T21:08:20.571Z,97544.23
2023-09-11T21:10:50.593Z,97545.30
2023-09-11T21:13:18.828Z,97546.95
2023-09-11T21:15:47.117Z,97549.66
2023-09-11T21:18:15.335Z,97549.29
2023-09-11T21:20:43.755Z,97552.55
2023-09-11T21:23:11.586Z,97552.63
2023-09-11T21:25:40.031Z,97552.86
2023-09-11T21:28:08.232Z,97552.84
2023-09-11T21:30:36.446Z,97549.86
2023-09-11T21:33:04.647Z,97552.45
2023-09-11T21:35:32.932Z,97556.37
2023-09-11T21:38:00.781Z,97556.24
2023-09-11T21:40:28.657Z,97558.63
2023-09-11T21:42:56.662Z,97559.43
2023-09-11T21:45:24.886Z,97563.00
2023-09-11T21:47:54.912Z,97569.42
2023-09-11T21:50:23.288Z,97568.34
2023-09-11T21:52:51.470Z,97569.63
2023-09-11T21:55:19.641Z,97577.30
2023-09-11T21:57:47.817Z,97580.20
2023-09-11T22:00:16.919Z,97578.73
2023-09-11T22:02:45.052Z,97576.33
2023-09-11T22:05:13.181Z,97573.49
2023-09-11T22:07:42.067Z,97575.09
2023-09-11T22:10:10.182Z,97579.55
2023-09-11T22:12:39.119Z,97579.01
2023-09-11T22:15:07.482Z,97577.34
2023-09-11T22:17:35.559Z,97571.70
2023-09-11T22:20:06.443Z,97574.11
2023-09-11T22:22:35.284Z,97576.67
2023-09-11T22:25:03.573Z,97575.38
2023-09-11T22:27:31.642Z,97577.16
2023-09-11T22:30:00.072Z,97571.88
2023-09-11T22:32:30.916Z,97575.65
2023-09-11T22:35:03.447Z,97574.92
2023-09-11T22:37:31.594Z,97569.83
2023-09-11T22:39:59.766Z,97568.07
2023-09-11T22:42:28.012Z,97570.30
2023-09-11T22:44:56.002Z,97571.48
2023-09-11T22:47:24.037Z,97569.41
2023-09-11T22:49:52.017Z,97570.08
2023-09-11T22:52:20.139Z,97566.31
2023-09-11T22:54:50.565Z,97568.47
2023-09-11T22:57:21.877Z,97565.41
2023-09-11T22:59:49.869Z,97563.89
2023-09-11T23:02:17.956Z,97569.33
2023-09-11T23:04:45.811Z,97568.06
2023-09-11T23:07:13.671Z,97566.71
2023-09-11T23:09:41.592Z,97568.14
2023-09-11T23:12:09.539Z,97566.58
2023-09-11T23:14:37.436Z,97566.98
2023-09-11T23:17:05.313Z,97562.44
2023-09-11T23:19:33.404Z,97559.79
2023-09-11T23:22:01.370Z,97556.70
2023-09-11T23:24:29.262Z,97555.17
2023-09-11T23:26:57.408Z,97552.14
2023-09-11T23:29:25.300Z,97554.39
2023-09-11T23:31:53.569Z,97552.02
2023-09-11T23:34:21.382Z,97551.20
2023-09-11T23:36:49.363Z,97551.09
2023-09-11T23:39:17.364Z,97550.71
2023-09-11T23:41:47.363Z,97556.44
2023-09-11T23:44:16.279Z,97552.52
2023-09-11T23:46:44.327Z,97552.24
2023-09-11T23:49:12.114Z,97550.11
2023-09-11T23:51:40.218Z,97547.69
2023-09-11T23:54:08.472Z,97549.23
2023-09-11T23:56:36.420Z,97547.39
2023-09-11T23:59:04.791Z,97549.14
